Time;durP1;ratioP1;P1;durP2;ratioP2;P2;SDS_P1;SDS_P2;PMS_P1;PMS_P2;Temp;Humidity;BMP_temperature;BMP_pressure;BME280_temperature;BME280_humidity;BME280_pressure;Samples;Min_cycle;Max_cycle;Signal;HPM_P1;HPM_P2
2022/09/05 00:00:18;;;;;;;14.13;11.13;;;19.60;54.00;;;;;;5030003;28;20523;-73
2022/09/05 00:03:07;;;;;;;11.20;8.95;;;19.50;54.10;;;;;;5054114;28;20476;-73
2022/09/05 00:05:51;;;;;;;10.63;7.90;;;19.50;54.30;;;;;;5053694;28;20781;-72
2022/09/05 00:08:45;;;;;;;18.08;13.32;;;19.50;54.30;;;;;;5053559;28;20378;-73
2022/09/05 00:11:19;;;;;;;10.88;8.75;;;19.50;54.20;;;;;;5027066;28;20405;-73
2022/09/05 00:13:58;;;;;;;8.70;7.53;;;19.60;54.20;;;;;;5053474;28;20427;-74
2022/09/05 00:16:30;;;;;;;13.37;9.27;;;19.50;54.60;;;;;;5053625;28;20376;-73
2022/09/05 00:19:09;;;;;;;13.85;10.50;;;19.60;53.90;;;;;;5053567;28;20468;-73
2022/09/05 00:21:56;;;;;;;10.60;8.50;;;19.50;54.40;;;;;;5053128;28;20476;-73
2022/09/05 00:24:40;;;;;;;6.18;5.55;;;19.50;54.70;;;;;;5053268;28;20393;-72
2022/09/05 00:27:22;;;;;;;13.00;10.18;;;19.50;54.40;;;;;;5053563;28;20431;-72
2022/09/05 00:29:50;;;;;;;16.15;10.82;;;19.50;54.90;;;;;;5053231;28;20384;-72
2022/09/05 00:32:44;;;;;;;15.93;12.02;;;19.40;55.20;;;;;;5053724;28;20446;-73
2022/09/05 00:35:21;;;;;;;15.88;9.85;;;19.40;55.70;;;;;;5052703;28;20870;-73
2022/09/05 00:37:49;;;;;;;11.52;7.90;;;19.30;56.20;;;;;;5035243;28;20397;-72
2022/09/05 00:40:21;;;;;;;10.82;8.52;;;19.30;56.80;;;;;;5052898;28;20377;-73
2022/09/05 00:42:51;;;;;;;13.75;10.07;;;19.20;57.00;;;;;;5052413;28;20409;-72
2022/09/05 00:45:31;;;;;;;6.25;4.70;;;19.20;57.50;;;;;;5034489;28;20462;-73
2022/09/05 00:47:59;;;;;;;10.20;6.60;;;19.10;58.10;;;;;;5053105;28;20409;-73
2022/09/05 00:50:41;;;;;;;12.55;9.55;;;19.10;58.50;;;;;;5052726;28;20373;-73
2022/09/05 00:53:10;;;;;;;14.27;10.85;;;19.10;58.70;;;;;;5053017;28;20666;-73
2022/09/05 00:56:06;;;;;;;8.07;5.93;;;19.00;58.50;;;;;;5053596;28;20405;-72
2022/09/05 00:59:23;;;;;;;13.85;11.60;;;19.10;59.20;;;;;;5052809;28;20381;-72
2022/09/05 01:02:05;;;;;;;6.90;6.20;;;19.00;59.60;;;;;;5018461;28;20467;-72
2022/09/05 01:04:51;;;;;;;11.05;8.25;;;19.00;59.50;;;;;;5052394;28;20385;-71
2022/09/05 01:07:38;;;;;;;8.65;6.43;;;18.90;60.20;;;;;;5052487;28;20381;-72
2022/09/05 01:10:25;;;;;;;8.77;7.07;;;18.90;60.20;;;;;;5052025;28;20854;-72
2022/09/05 01:13:33;;;;;;;8.75;6.07;;;18.90;60.90;;;;;;5051832;28;20446;-72
2022/09/05 01:16:18;;;;;;;9.85;6.80;;;18.80;61.10;;;;;;5051882;28;20439;-72
2022/09/05 01:19:04;;;;;;;5.77;4.93;;;18.80;61.20;;;;;;5051880;28;20413;-72
2022/09/05 01:22:24;;;;;;;7.13;6.43;;;18.90;60.40;;;;;;5051502;28;20493;-72
2022/09/05 01:25:08;;;;;;;7.40;5.57;;;18.90;60.40;;;;;;4990353;28;20394;-72
2022/09/05 01:28:07;;;;;;;11.05;9.13;;;18.90;61.20;;;;;;5047049;28;20735;-74
2022/09/05 01:30:55;;;;;;;8.35;5.97;;;18.80;62.00;;;;;;5052641;28;20385;-74
2022/09/05 01:33:36;;;;;;;6.75;4.70;;;18.80;61.70;;;;;;5051964;28;20385;-73
2022/09/05 01:36:30;;;;;;;7.53;6.72;;;18.80;61.50;;;;;;5033949;28;20397;-72
2022/09/05 01:39:11;;;;;;;15.35;11.48;;;18.80;62.20;;;;;;5052369;28;20751;-71
2022/09/05 01:41:41;;;;;;;8.05;6.80;;;18.80;63.10;;;;;;5051991;28;20401;-73
2022/09/05 01:44:27;;;;;;;7.38;5.88;;;18.70;63.10;;;;;;5053668;28;20381;-74
2022/09/05 01:47:12;;;;;;;6.85;6.13;;;18.80;63.00;;;;;;5057259;28;20416;-72
2022/09/05 01:50:25;;;;;;;10.60;7.35;;;18.80;63.00;;;;;;5056641;28;20389;-73
2022/09/05 01:53:24;;;;;;;9.85;7.70;;;18.70;63.50;;;;;;4990575;28;20385;-72
2022/09/05 01:56:28;;;;;;;11.93;8.77;;;18.70;63.90;;;;;;5051317;28;20377;-72
2022/09/05 01:59:24;;;;;;;8.43;6.38;;;18.70;64.30;;;;;;5051307;28;20370;-72
2022/09/05 02:02:22;;;;;;;9.13;8.05;;;18.60;64.70;;;;;;5050797;28;20423;-73
2022/09/05 02:04:59;;;;;;;8.53;7.60;;;18.60;64.70;;;;;;5051554;28;20388;-72
2022/09/05 02:07:45;;;;;;;9.35;6.50;;;18.60;64.30;;;;;;5051070;28;20373;-73
2022/09/05 02:10:38;;;;;;;11.77;8.43;;;18.60;64.30;;;;;;5051066;28;20382;-73
2022/09/05 02:13:17;;;;;;;21.15;14.55;;;18.60;64.00;;;;;;5051184;28;20435;-74
2022/09/05 02:16:04;;;;;;;8.32;6.00;;;18.60;63.90;;;;;;5050971;28;20788;-73
2022/09/05 02:19:07;;;;;;;13.80;8.98;;;18.60;63.70;;;;;;5050687;28;20373;-72
2022/09/05 02:21:34;;;;;;;15.07;8.40;;;18.60;63.80;;;;;;5048534;28;20909;-73
2022/09/05 02:24:22;;;;;;;7.20;6.13;;;18.60;63.80;;;;;;5052137;28;20392;-73
2022/09/05 02:26:53;;;;;;;13.88;10.27;;;18.60;63.50;;;;;;5032952;28;20955;-73
2022/09/05 02:29:54;;;;;;;13.00;8.50;;;18.60;63.10;;;;;;5050725;28;20428;-73
2022/09/05 02:32:30;;;;;;;8.50;6.63;;;18.60;62.60;;;;;;5050973;28;20388;-73
2022/09/05 02:35:23;;;;;;;7.90;4.57;;;18.50;62.50;;;;;;5050923;28;20458;-73
2022/09/05 02:37:51;;;;;;;9.15;7.55;;;18.50;62.90;;;;;;5057335;28;20412;-73
2022/09/05 02:40:35;;;;;;;9.07;6.20;;;18.50;63.30;;;;;;5066143;28;20483;-73
2022/09/05 02:43:00;;;;;;;6.80;6.10;;;18.40;63.40;;;;;;5050577;28;20902;-72
2022/09/05 02:45:33;;;;;;;7.90;5.63;;;18.40;63.80;;;;;;5043835;28;20405;-72
2022/09/05 02:48:17;;;;;;;12.25;7.78;;;18.40;63.70;;;;;;5063535;28;20385;-72
2022/09/05 02:51:03;;;;;;;10.60;8.38;;;18.40;63.30;;;;;;5052129;28;20385;-73
2022/09/05 02:53:29;;;;;;;9.63;6.32;;;18.40;62.80;;;;;;5050442;28;20708;-73
2022/09/05 02:56:13;;;;;;;10.32;7.18;;;18.40;62.30;;;;;;5050282;28;20401;-73
2022/09/05 02:58:48;;;;;;;7.82;4.90;;;18.40;62.30;;;;;;5054083;28;20921;-72
2022/09/05 03:01:24;;;;;;;9.50;6.57;;;18.40;61.30;;;;;;5053579;28;20898;-73
2022/09/05 03:04:02;;;;;;;5.30;4.65;;;18.40;62.30;;;;;;5053949;28;20818;-73
2022/09/05 03:06:50;;;;;;;7.90;6.10;;;18.40;61.70;;;;;;5053822;28;20385;-73
2022/09/05 03:09:19;;;;;;;6.50;5.80;;;18.40;61.80;;;;;;5053532;28;20381;-73
2022/09/05 03:12:22;;;;;;;8.98;6.90;;;18.50;61.70;;;;;;5053642;28;20763;-73
2022/09/05 03:14:57;;;;;;;9.90;7.05;;;18.50;61.10;;;;;;5053623;28;20381;-73
2022/09/05 03:18:05;;;;;;;9.02;7.38;;;18.50;61.00;;;;;;5035649;28;20392;-73
2022/09/05 03:20:50;;;;;;;9.05;6.07;;;18.40;61.10;;;;;;5053689;28;20394;-73
2022/09/05 03:23:46;;;;;;;7.18;5.18;;;18.50;60.50;;;;;;5053627;28;20386;-73
2022/09/05 03:26:46;;;;;;;6.70;5.60;;;18.50;60.30;;;;;;5053930;28;20821;-73
2022/09/05 03:29:47;;;;;;;7.40;5.32;;;18.50;60.40;;;;;;5020065;28;20386;-74
2022/09/05 03:32:47;;;;;;;5.85;5.18;;;18.50;59.90;;;;;;5025065;28;20465;-71
2022/09/05 03:35:54;;;;;;;8.02;6.50;;;18.60;59.10;;;;;;5035748;28;20385;-72
2022/09/05 03:38:47;;;;;;;5.70;5.10;;;18.70;58.60;;;;;;5053722;28;20780;-72
2022/09/05 03:41:33;;;;;;;7.05;4.70;;;18.70;58.20;;;;;;5053266;28;20874;-73
2022/09/05 03:44:04;;;;;;;8.80;6.30;;;18.70;57.90;;;;;;5053863;28;20373;-71
2022/09/05 03:46:41;;;;;;;8.77;5.57;;;18.70;58.00;;;;;;5054699;28;20436;-72
2022/09/05 03:49:14;;;;;;;5.65;5.07;;;18.70;57.90;;;;;;5053825;28;20381;-72
2022/09/05 03:51:51;;;;;;;9.83;6.63;;;18.70;57.90;;;;;;5054485;28;20464;-72
2022/09/05 03:54:44;;;;;;;7.30;5.75;;;18.70;58.00;;;;;;5054817;28;20747;-72
2022/09/05 03:57:46;;;;;;;5.20;4.70;;;18.60;58.50;;;;;;5035784;28;20407;-72
2022/09/05 04:00:24;;;;;;;6.20;4.90;;;18.60;58.90;;;;;;5053529;28;20377;-72
2022/09/05 04:03:23;;;;;;;6.78;5.00;;;18.60;59.10;;;;;;5054297;28;20405;-72
2022/09/05 04:06:06;;;;;;;7.20;5.75;;;18.60;59.30;;;;;;5053235;28;20386;-72
2022/09/05 04:08:32;;;;;;;5.13;4.10;;;18.60;59.40;;;;;;5053328;28;20450;-72
2022/09/05 04:11:18;;;;;;;5.00;4.50;;;18.60;59.70;;;;;;5053004;28;20421;-72
2022/09/05 04:13:59;;;;;;;5.90;3.58;;;18.50;60.30;;;;;;5052403;28;20548;-72
2022/09/05 04:16:32;;;;;;;6.72;4.88;;;18.50;60.80;;;;;;5052300;28;20424;-71
2022/09/05 04:19:12;;;;;;;5.40;4.88;;;18.40;61.90;;;;;;5052376;28;20404;-72
2022/09/05 04:21:45;;;;;;;6.10;5.50;;;18.40;62.80;;;;;;5052253;28;20433;-72
2022/09/05 04:24:37;;;;;;;12.25;6.55;;;18.30;63.30;;;;;;5052241;28;20384;-73
2022/09/05 04:27:23;;;;;;;8.00;6.10;;;18.30;64.40;;;;;;5003463;28;20397;-73
2022/09/05 04:30:00;;;;;;;7.50;6.70;;;18.20;65.30;;;;;;5052696;28;20385;-76
2022/09/05 04:32:54;;;;;;;7.30;5.27;;;18.10;67.10;;;;;;5052112;28;20381;-74
2022/09/05 04:35:25;;;;;;;7.80;5.43;;;18.00;68.30;;;;;;5052156;28;20489;-74
2022/09/05 04:38:12;;;;;;;6.97;5.47;;;18.00;69.20;;;;;;5052360;28;20385;-72
2022/09/05 04:40:45;;;;;;;9.67;6.00;;;17.90;69.50;;;;;;5051943;28;20401;-73
2022/09/05 04:43:16;;;;;;;9.27;7.35;;;17.90;71.30;;;;;;5051613;28;20416;-73
2022/09/05 04:45:52;;;;;;;11.93;8.30;;;17.80;72.00;;;;;;5051984;28;20429;-73
2022/09/05 04:48:25;;;;;;;15.93;10.00;;;17.70;73.10;;;;;;5051694;28;20881;-73
2022/09/05 04:51:07;;;;;;;11.27;8.50;;;17.70;73.90;;;;;;5051654;28;20385;-72
2022/09/05 04:53:39;;;;;;;15.73;11.43;;;17.70;73.90;;;;;;5051722;28;20473;-73
2022/09/05 04:56:13;;;;;;;12.13;8.60;;;17.70;74.50;;;;;;5052269;28;20872;-74
2022/09/05 04:58:57;;;;;;;14.15;8.13;;;17.70;75.20;;;;;;5051686;28;20851;-73
2022/09/05 05:01:34;;;;;;;15.18;11.35;;;17.70;75.20;;;;;;5033197;28;20413;-74
2022/09/05 05:04:15;;;;;;;8.65;7.72;;;17.70;75.40;;;;;;5051579;28;20373;-73
2022/09/05 05:06:54;;;;;;;17.95;11.55;;;17.70;75.20;;;;;;5033413;28;20393;-73
2022/09/05 05:09:27;;;;;;;13.98;10.20;;;17.70;75.00;;;;;;5051560;28;20382;-73
2022/09/05 05:12:09;;;;;;;13.93;10.75;;;17.70;74.60;;;;;;5051232;28;20777;-73
2022/09/05 05:14:47;;;;;;;12.82;8.63;;;17.70;75.30;;;;;;5052006;28;20392;-74
2022/09/05 05:17:50;;;;;;;19.40;13.68;;;17.80;74.40;;;;;;5051829;28;20393;-73
2022/09/05 05:20:30;;;;;;;18.80;12.50;;;17.80;74.20;;;;;;5054067;28;20405;-73
2022/09/05 05:22:58;;;;;;;16.15;12.60;;;17.80;74.00;;;;;;5055021;28;20816;-73
2022/09/05 05:25:26;;;;;;;18.73;12.82;;;17.80;73.60;;;;;;5051529;28;20460;-73
2022/09/05 05:28:10;;;;;;;16.48;11.43;;;17.90;73.20;;;;;;5050784;28;20404;-72
2022/09/05 05:30:37;;;;;;;11.60;9.05;;;17.90;72.10;;;;;;5051146;28;20385;-73
2022/09/05 05:33:24;;;;;;;8.70;5.70;;;18.00;71.70;;;;;;5050702;28;20396;-73
2022/09/05 05:35:50;;;;;;;17.23;11.93;;;18.00;71.00;;;;;;5050455;28;20412;-74
2022/09/05 05:38:16;;;;;;;9.50;7.25;;;18.10;70.20;;;;;;5050566;28;20381;-73
2022/09/05 05:40:52;;;;;;;9.98;8.55;;;18.10;69.90;;;;;;5033160;28;20400;-74
2022/09/05 05:43:24;;;;;;;12.68;7.93;;;18.20;69.00;;;;;;5050494;28;20408;-74
2022/09/05 05:45:58;;;;;;;21.48;14.25;;;18.30;68.00;;;;;;5050260;28;20870;-74
2022/09/05 05:48:37;;;;;;;20.77;14.98;;;18.30;66.70;;;;;;5050380;28;20746;-74
2022/09/05 05:51:15;;;;;;;11.20;8.00;;;18.40;66.00;;;;;;5050650;28;20468;-73
2022/09/05 05:54:16;;;;;;;9.05;6.30;;;18.40;64.40;;;;;;5033068;28;20392;-73
2022/09/05 05:57:19;;;;;;;15.23;11.35;;;18.50;63.20;;;;;;5037208;28;20719;-74
2022/09/05 05:59:53;;;;;;;20.92;14.07;;;18.60;62.50;;;;;;5032748;28;20762;-74
2022/09/05 06:03:00;;;;;;;27.60;20.40;;;18.70;61.30;;;;;;5050147;28;20444;-74
2022/09/05 06:05:32;;;;;;;25.67;16.63;;;18.80;60.80;;;;;;5050190;28;20385;-72
2022/09/05 06:08:17;;;;;;;19.77;13.13;;;18.90;59.20;;;;;;5050814;28;20377;-72
2022/09/05 06:11:20;;;;;;;13.35;8.27;;;19.00;58.10;;;;;;5050206;28;20431;-73
2022/09/05 06:14:07;;;;;;;19.63;13.00;;;19.10;56.60;;;;;;5050299;28;20393;-74
2022/09/05 06:17:16;;;;;;;15.13;11.32;;;19.20;55.60;;;;;;5032577;28;20515;-72
2022/09/05 06:20:09;;;;;;;18.45;11.05;;;19.40;54.30;;;;;;5050495;28;20442;-73
2022/09/05 06:22:51;;;;;;;9.23;6.75;;;19.50;53.00;;;;;;5050086;28;20432;-74
2022/09/05 06:25:49;;;;;;;15.90;12.15;;;19.60;51.10;;;;;;5050036;28;20465;-75
2022/09/05 06:29:12;;;;;;;27.48;17.35;;;19.70;50.50;;;;;;5050153;28;20385;-73
2022/09/05 06:32:01;;;;;;;9.65;5.28;;;19.80;48.60;;;;;;5027839;28;20804;-73
2022/09/05 06:34:53;;;;;;;28.52;13.27;;;19.90;48.10;;;;;;5054451;28;20382;-72
2022/09/05 06:37:28;;;;;;;47.75;28.83;;;20.10;47.80;;;;;;5054232;28;20435;-74
2022/09/05 06:40:04;;;;;;;15.47;7.03;;;20.20;47.10;;;;;;5054292;28;20580;-73
2022/09/05 06:42:52;;;;;;;16.73;12.18;;;20.30;46.10;;;;;;5036022;28;20488;-73
2022/09/05 06:45:38;;;;;;;17.10;11.95;;;20.40;44.80;;;;;;5053934;28;20389;-73
2022/09/05 06:48:19;;;;;;;14.02;8.13;;;20.60;44.50;;;;;;5054049;28;20389;-73
2022/09/05 06:51:07;;;;;;;9.93;5.75;;;20.70;43.80;;;;;;5054128;28;20369;-73
2022/09/05 06:53:43;;;;;;;10.10;8.05;;;20.80;42.30;;;;;;5054150;28;20382;-73
2022/09/05 06:56:32;;;;;;;14.30;7.57;;;20.90;41.40;;;;;;5052696;28;20785;-73
2022/09/05 06:59:33;;;;;;;8.57;5.10;;;21.00;40.70;;;;;;5054241;28;20460;-73
2022/09/05 07:02:22;;;;;;;9.35;5.07;;;21.10;40.40;;;;;;5053631;28;20411;-73
2022/09/05 07:05:17;;;;;;;12.63;5.70;;;21.20;39.50;;;;;;5053457;28;20384;-72
2022/09/05 07:07:53;;;;;;;11.63;4.60;;;21.30;39.00;;;;;;5041244;28;20393;-72
2022/09/05 07:10:28;;;;;;;10.82;6.70;;;21.50;38.30;;;;;;5052383;28;20400;-73
2022/09/05 07:13:18;;;;;;;10.43;5.90;;;21.50;38.40;;;;;;5053313;28;20913;-73
2022/09/05 07:15:54;;;;;;;12.03;7.40;;;21.50;38.30;;;;;;5048823;28;20470;-73
2022/09/05 07:18:42;;;;;;;10.07;6.13;;;21.60;38.20;;;;;;5048785;28;20391;-73
2022/09/05 07:21:22;;;;;;;10.75;5.50;;;21.80;37.40;;;;;;5033553;28;20445;-72
2022/09/05 07:24:18;;;;;;;10.68;6.22;;;21.90;36.20;;;;;;5041799;28;20393;-76
2022/09/05 07:26:47;;;;;;;6.30;4.93;;;22.00;35.70;;;;;;5011516;28;20401;-74
2022/09/05 07:29:19;;;;;;;20.70;14.10;;;22.00;35.10;;;;;;5041377;28;20410;-73
2022/09/05 07:31:49;;;;;;;33.08;23.08;;;22.20;34.60;;;;;;5036578;28;20467;-72
2022/09/05 07:34:27;;;;;;;10.85;7.72;;;22.40;33.70;;;;;;5032180;28;20405;-73
2022/09/05 07:36:56;;;;;;;12.15;7.53;;;22.50;32.90;;;;;;5030311;28;20387;-73
2022/09/05 07:39:31;;;;;;;9.10;5.33;;;22.50;32.60;;;;;;5032819;28;20561;-72
2022/09/05 07:42:04;;;;;;;8.35;5.70;;;22.70;31.40;;;;;;5051597;28;20413;-74
2022/09/05 07:44:34;;;;;;;10.90;5.32;;;22.70;31.00;;;;;;5051338;28;20389;-72
2022/09/05 07:47:23;;;;;;;10.52;5.78;;;22.80;30.50;;;;;;5051718;28;20488;-71
2022/09/05 07:49:50;;;;;;;9.20;6.10;;;22.90;29.60;;;;;;5051843;28;20385;-74
2022/09/05 07:52:23;;;;;;;9.18;4.70;;;23.00;29.20;;;;;;5049666;28;20443;-72
2022/09/05 07:54:52;;;;;;;6.10;4.85;;;23.10;28.20;;;;;;5032957;28;20393;-73
2022/09/05 07:57:25;;;;;;;8.27;4.53;;;23.20;27.90;;;;;;5039842;28;20449;-72
2022/09/05 08:00:00;;;;;;;6.93;5.53;;;23.30;27.40;;;;;;5036012;28;20383;-73
2022/09/05 08:02:26;;;;;;;7.00;4.70;;;23.40;26.80;;;;;;5038072;28;20514;-73
2022/09/05 08:05:00;;;;;;;9.30;5.10;;;23.50;26.40;;;;;;5021760;28;20474;-74
2022/09/05 08:07:34;;;;;;;17.33;10.45;;;23.60;26.20;;;;;;5036717;28;20382;-74
2022/09/05 08:10:14;;;;;;;10.23;5.00;;;23.60;26.40;;;;;;5037224;28;20490;-73
2022/09/05 08:12:47;;;;;;;7.78;4.55;;;23.80;26.30;;;;;;5031563;28;20868;-74
2022/09/05 08:15:24;;;;;;;9.48;4.65;;;23.80;25.90;;;;;;5050061;28;20401;-72
2022/09/05 08:18:12;;;;;;;15.02;5.35;;;23.90;24.90;;;;;;5051650;28;20384;-74
2022/09/05 08:20:53;;;;;;;6.10;4.50;;;24.00;24.80;;;;;;5053269;28;20378;-72
2022/09/05 08:23:28;;;;;;;6.57;4.20;;;24.10;24.30;;;;;;5049191;28;20766;-74
2022/09/05 08:26:08;;;;;;;10.77;5.15;;;24.20;22.90;;;;;;5041201;28;20414;-72
2022/09/05 08:28:55;;;;;;;7.35;4.82;;;24.30;22.40;;;;;;5032697;28;20760;-73
2022/09/05 08:31:43;;;;;;;5.30;3.83;;;24.30;21.80;;;;;;5049149;28;20484;-74
2022/09/05 08:34:17;;;;;;;9.05;5.07;;;24.50;21.60;;;;;;5046535;28;20489;-73
2022/09/05 08:36:50;;;;;;;6.83;4.50;;;24.60;21.50;;;;;;5033070;28;20393;-74
2022/09/05 08:39:22;;;;;;;6.30;3.70;;;24.70;22.10;;;;;;5049965;28;20881;-74
2022/09/05 08:41:53;;;;;;;7.43;3.90;;;24.70;21.60;;;;;;5034433;28;20863;-74
2022/09/05 08:44:44;;;;;;;11.25;4.05;;;24.80;20.50;;;;;;5047565;28;20896;-74
2022/09/05 08:47:23;;;;;;;5.57;4.00;;;24.90;20.10;;;;;;5044778;28;20438;-74
2022/09/05 08:50:43;;;;;;;8.45;4.63;;;25.00;20.40;;;;;;5033877;28;20390;-74
2022/09/05 08:53:34;;;;;;;7.05;4.63;;;25.30;19.70;;;;;;4935297;29;20459;-73
2022/09/05 08:56:13;;;;;;;7.78;3.92;;;25.40;19.50;;;;;;4997741;28;20470;-74
2022/09/05 08:58:54;;;;;;;9.00;4.85;;;25.50;19.00;;;;;;5034623;28;20389;-75
2022/09/05 09:01:39;;;;;;;6.60;3.85;;;25.50;18.40;;;;;;5051512;28;20905;-74
2022/09/05 09:04:17;;;;;;;5.40;3.58;;;25.60;17.80;;;;;;5050239;28;20538;-73
2022/09/05 09:07:11;;;;;;;6.70;3.88;;;25.60;17.40;;;;;;5050111;28;20393;-73
2022/09/05 09:09:59;;;;;;;6.90;3.60;;;25.60;17.80;;;;;;5051325;28;20455;-72
2022/09/05 09:12:49;;;;;;;4.63;3.63;;;25.70;16.20;;;;;;5050729;28;20424;-74
2022/09/05 09:15:35;;;;;;;8.05;4.10;;;25.70;16.30;;;;;;5051253;28;20479;-73
2022/09/05 09:18:15;;;;;;;6.10;3.00;;;25.80;15.90;;;;;;5049840;28;20374;-73
2022/09/05 09:20:48;;;;;;;6.82;4.43;;;26.00;15.70;;;;;;5050512;28;20385;-73
2022/09/05 09:23:49;;;;;;;7.50;4.03;;;26.10;15.90;;;;;;5049252;28;20731;-73
2022/09/05 09:26:18;;;;;;;5.78;4.00;;;26.10;15.70;;;;;;4981779;28;20450;-73
2022/09/05 09:29:01;;;;;;;11.45;4.18;;;26.40;15.20;;;;;;5040781;28;20406;-73
2022/09/05 09:32:03;;;;;;;4.80;3.28;;;26.50;14.90;;;;;;5031987;28;20398;-73
2022/09/05 09:34:45;;;;;;;7.93;4.18;;;26.50;14.60;;;;;;4991476;28;20525;-74
2022/09/05 09:37:35;;;;;;;7.65;3.65;;;26.50;14.40;;;;;;5032400;28;20483;-74
2022/09/05 09:40:23;;;;;;;7.05;3.60;;;26.50;14.10;;;;;;5015360;28;20391;-74
2022/09/05 09:43:00;;;;;;;6.50;3.05;;;26.60;13.90;;;;;;5001211;28;20892;-74
2022/09/05 09:45:50;;;;;;;7.82;3.40;;;26.70;13.70;;;;;;5033043;28;20434;-73
2022/09/05 09:48:58;;;;;;;9.40;3.97;;;26.70;13.30;;;;;;5038352;28;20397;-73
2022/09/05 09:52:00;;;;;;;5.82;3.65;;;26.70;13.00;;;;;;5046976;28;20388;-72
2022/09/05 09:54:55;;;;;;;8.80;3.50;;;26.70;12.30;;;;;;5038574;28;20448;-73
2022/09/05 09:57:40;;;;;;;4.63;3.40;;;26.80;10.70;;;;;;5048683;28;20508;-73
2022/09/05 10:00:19;;;;;;;6.30;2.80;;;27.10;10.60;;;;;;5048534;28;20511;-73
2022/09/05 10:03:19;;;;;;;7.32;3.80;;;27.20;9.50;;;;;;5048337;28;20404;-73
2022/09/05 10:05:56;;;;;;;4.88;3.33;;;27.20;9.20;;;;;;5028611;28;20405;-73
2022/09/05 10:08:46;;;;;;;4.95;3.20;;;27.30;9.30;;;;;;5048257;28;20817;-73
2022/09/05 10:11:17;;;;;;;5.70;3.70;;;27.30;8.00;;;;;;5028275;28;20383;-72
2022/09/05 10:13:49;;;;;;;5.60;3.22;;;27.40;7.60;;;;;;5028987;28;20414;-74
2022/09/05 10:16:23;;;;;;;7.00;3.85;;;27.50;8.30;;;;;;5030004;28;20391;-72
2022/09/05 10:18:49;;;;;;;5.90;3.80;;;27.60;8.30;;;;;;5034374;28;20396;-73
2022/09/05 10:21:36;;;;;;;4.57;2.60;;;27.60;8.60;;;;;;5045953;28;20769;-72
2022/09/05 10:24:44;;;;;;;5.57;3.17;;;27.70;7.40;;;;;;5032692;28;20401;-73
2022/09/05 10:27:13;;;;;;;3.88;2.83;;;27.70;6.80;;;;;;5047553;28;20461;-72
2022/09/05 10:30:02;;;;;;;5.35;2.80;;;27.80;7.10;;;;;;5037717;28;20724;-72
2022/09/05 10:32:39;;;;;;;6.13;3.10;;;27.80;7.40;;;;;;5031002;28;20397;-72
2022/09/05 10:35:16;;;;;;;7.25;2.90;;;27.80;6.70;;;;;;5049229;28;20469;-72
2022/09/05 10:37:45;;;;;;;3.05;2.80;;;27.80;7.00;;;;;;5049463;28;20408;-74
2022/09/05 10:40:16;;;;;;;5.43;3.85;;;27.90;6.30;;;;;;5049529;28;20392;-73
2022/09/05 10:43:07;;;;;;;4.80;2.90;;;28.10;6.60;;;;;;5049347;28;20405;-73
2022/09/05 10:45:46;;;;;;;4.07;2.72;;;28.30;6.00;;;;;;5049175;28;20392;-74
2022/09/05 10:48:20;;;;;;;4.85;3.22;;;28.40;5.30;;;;;;5050542;28;20378;-72
2022/09/05 10:51:02;;;;;;;5.82;3.30;;;28.30;5.10;;;;;;5050220;28;20456;-73
2022/09/05 10:53:49;;;;;;;6.82;3.08;;;28.50;4.50;;;;;;5050642;28;20758;-74
2022/09/05 10:56:22;;;;;;;7.00;3.00;;;28.40;4.40;;;;;;5050722;28;20400;-73
2022/09/05 10:59:03;;;;;;;3.83;3.20;;;28.30;4.70;;;;;;5050748;28;20432;-72
2022/09/05 11:01:45;;;;;;;2.70;2.50;;;28.30;4.90;;;;;;5049945;28;20902;-73
2022/09/05 11:04:32;;;;;;;3.10;2.28;;;28.40;4.10;;;;;;5052311;28;20388;-72
2022/09/05 11:07:14;;;;;;;3.00;2.20;;;28.40;3.80;;;;;;5049757;28;20370;-73
2022/09/05 11:10:01;;;;;;;4.72;2.65;;;28.40;4.10;;;;;;5049489;28;20405;-73
2022/09/05 11:12:48;;;;;;;4.83;3.83;;;28.30;4.60;;;;;;5031685;28;20385;-73
2022/09/05 11:15:22;;;;;;;4.97;4.17;;;28.40;5.00;;;;;;5049507;28;20390;-72
2022/09/05 11:18:03;;;;;;;6.70;2.72;;;28.50;4.90;;;;;;5050654;28;20382;-74
2022/09/05 11:20:53;;;;;;;3.80;2.70;;;28.50;4.50;;;;;;5053634;28;20476;-72
2022/09/05 11:23:38;;;;;;;2.90;2.60;;;28.40;4.50;;;;;;5054052;28;20405;-73
2022/09/05 11:26:12;;;;;;;4.65;3.17;;;28.50;4.40;;;;;;5053794;28;20379;-73
2022/09/05 11:29:08;;;;;;;4.30;2.20;;;28.60;4.10;;;;;;5053050;28;20473;-72
2022/09/05 11:31:40;;;;;;;3.22;1.92;;;28.60;3.80;;;;;;5053553;28;20882;-73
2022/09/05 11:34:21;;;;;;;3.70;1.90;;;28.70;3.40;;;;;;5053618;28;20472;-73
2022/09/05 11:36:50;;;;;;;5.60;2.40;;;28.80;3.30;;;;;;5053278;28;20381;-72
2022/09/05 11:40:11;;;;;;;3.65;2.90;;;28.80;3.60;;;;;;5053331;28;20476;-73
2022/09/05 11:42:57;;;;;;;6.53;3.50;;;28.90;3.40;;;;;;5052871;28;20415;-73
2022/09/05 11:45:26;;;;;;;3.20;2.90;;;28.90;3.60;;;;;;5053066;28;20794;-74
2022/09/05 11:48:10;;;;;;;2.75;2.22;;;28.90;3.70;;;;;;5053347;28;21048;-73
2022/09/05 11:50:48;;;;;;;3.10;2.30;;;29.10;3.30;;;;;;5053805;28;20500;-73
2022/09/05 11:53:34;;;;;;;6.53;3.70;;;29.00;3.50;;;;;;5053069;28;20390;-73
2022/09/05 11:56:02;;;;;;;9.00;4.45;;;28.80;3.70;;;;;;5053185;28;20438;-73
2022/09/05 11:59:13;;;;;;;5.55;2.30;;;28.80;3.90;;;;;;5053620;28;20464;-73
2022/09/05 12:01:53;;;;;;;8.13;2.40;;;29.10;3.50;;;;;;5015744;28;20476;-73
2022/09/05 12:04:50;;;;;;;2.53;2.10;;;29.20;3.10;;;;;;5053637;28;20388;-74
2022/09/05 12:07:34;;;;;;;3.30;2.30;;;29.20;3.10;;;;;;5053966;28;20472;-73
2022/09/05 12:10:37;;;;;;;5.60;2.80;;;29.30;3.00;;;;;;5035252;28;20477;-73
2022/09/05 12:13:22;;;;;;;4.32;2.60;;;29.30;3.00;;;;;;5046373;28;20397;-72
2022/09/05 12:15:49;;;;;;;3.25;2.22;;;29.30;3.00;;;;;;5050927;28;20883;-73
2022/09/05 12:18:49;;;;;;;2.53;2.33;;;29.40;2.50;;;;;;5044132;28;20437;-74
2022/09/05 12:21:39;;;;;;;2.13;1.83;;;29.40;2.30;;;;;;5031960;28;20395;-73
2022/09/05 12:24:14;;;;;;;4.80;4.30;;;29.40;2.40;;;;;;5033334;28;20402;-73
2022/09/05 12:26:43;;;;;;;7.68;3.88;;;29.40;2.90;;;;;;5032373;28;20411;-73
2022/09/05 12:29:14;;;;;;;5.95;3.00;;;29.50;2.60;;;;;;5033062;28;20896;-73
2022/09/05 12:31:57;;;;;;;3.33;2.70;;;29.60;1.80;;;;;;5033626;28;20478;-74
2022/09/05 12:34:54;;;;;;;2.75;2.45;;;29.70;2.10;;;;;;5014548;28;20785;-73
2022/09/05 12:37:32;;;;;;;5.97;2.47;;;29.70;2.50;;;;;;5017170;28;20396;-74
2022/09/05 12:40:09;;;;;;;3.58;3.10;;;29.90;1.50;;;;;;5014154;28;20806;-74
2022/09/05 12:42:40;;;;;;;3.50;2.83;;;30.00;1.30;;;;;;5031676;28;20505;-72
2022/09/05 12:45:33;;;;;;;6.50;4.30;;;30.00;1.60;;;;;;5031783;28;20391;-72
2022/09/05 12:48:07;;;;;;;3.93;2.20;;;30.00;1.70;;;;;;5032171;28;20892;-73
2022/09/05 12:50:53;;;;;;;3.50;3.10;;;30.00;1.40;;;;;;5014305;28;20375;-73
2022/09/05 12:53:19;;;;;;;3.08;2.30;;;30.20;1.20;;;;;;5040080;28;20402;-72
2022/09/05 12:55:52;;;;;;;4.50;2.35;;;30.20;1.00;;;;;;5032261;28;20484;-75
2022/09/05 12:58:29;;;;;;;8.68;2.70;;;30.30;1.00;;;;;;5035348;28;20381;-77
2022/09/05 13:01:15;;;;;;;3.40;2.70;;;30.40;1.00;;;;;;5034470;28;20485;-77
2022/09/05 13:04:05;;;;;;;4.63;2.40;;;30.30;1.00;;;;;;5054464;28;20428;-76
2022/09/05 13:06:38;;;;;;;2.90;2.20;;;30.20;1.00;;;;;;5016792;28;20388;-75
2022/09/05 13:09:15;;;;;;;2.65;2.45;;;30.20;1.00;;;;;;5034916;28;20418;-77
2022/09/05 13:12:15;;;;;;;5.17;2.97;;;30.10;1.00;;;;;;5016211;28;20457;-77
2022/09/05 13:14:56;;;;;;;4.30;3.25;;;30.00;1.00;;;;;;5025958;28;20970;-73
2022/09/05 13:17:33;;;;;;;3.05;2.53;;;30.20;1.00;;;;;;5031463;28;20414;-74
2022/09/05 13:20:00;;;;;;;6.63;3.70;;;30.30;1.00;;;;;;5031593;28;20795;-73
2022/09/05 13:22:27;;;;;;;3.90;2.90;;;30.50;1.00;;;;;;5014009;28;20407;-74
2022/09/05 13:25:08;;;;;;;4.90;2.50;;;30.90;1.00;;;;;;5031706;28;20380;-74
2022/09/05 13:27:40;;;;;;;3.03;2.72;;;31.00;1.00;;;;;;5016199;28;20396;-74
2022/09/05 13:30:10;;;;;;;2.45;2.25;;;31.00;1.00;;;;;;5016197;28;20416;-75
2022/09/05 13:32:50;;;;;;;5.38;2.50;;;31.10;1.00;;;;;;5038513;28;20389;-73
2022/09/05 13:35:26;;;;;;;4.63;2.60;;;31.50;1.00;;;;;;5018656;28;20425;-75
2022/09/05 13:38:30;;;;;;;2.10;1.90;;;32.00;1.00;;;;;;5032158;28;20401;-76
2022/09/05 13:40:59;;;;;;;5.55;2.13;;;32.70;1.00;;;;;;4989834;28;20421;-77
2022/09/05 13:43:37;;;;;;;2.33;2.10;;;33.10;1.00;;;;;;5023508;28;20415;-75
2022/09/05 13:46:21;;;;;;;3.83;2.30;;;33.20;1.00;;;;;;5031179;28;20818;-76
2022/09/05 13:48:50;;;;;;;3.10;2.40;;;33.30;1.00;;;;;;5031542;28;20807;-74
2022/09/05 13:51:50;;;;;;;3.47;2.28;;;33.40;1.00;;;;;;5013353;28;20450;-75
2022/09/05 13:54:52;;;;;;;3.78;2.50;;;33.50;1.00;;;;;;5034016;28;20395;-74
2022/09/05 13:57:32;;;;;;;3.05;2.50;;;33.70;1.00;;;;;;5031065;28;20468;-75
2022/09/05 14:00:10;;;;;;;10.05;2.60;;;33.90;1.00;;;;;;5014151;28;20884;-74
2022/09/05 14:02:58;;;;;;;3.00;1.90;;;34.10;1.00;;;;;;5032561;28;20840;-75
2022/09/05 14:06:02;;;;;;;2.60;1.90;;;34.70;1.00;;;;;;5034012;28;20383;-75